createdAt,value
2022-09-21T00:01:25.597Z,99364.72
2022-09-21T00:04:03.765Z,99365.22
2022-09-21T00:06:34.214Z,99363.66
2022-09-21T00:09:03.763Z,99359.16
2022-09-21T00:11:32.904Z,99371.38
2022-09-21T00:14:04.408Z,99372.88
2022-09-21T00:16:32.012Z,99376.75
2022-09-21T00:18:59.150Z,99375.09
2022-09-21T00:21:27.841Z,99372.56
2022-09-21T00:23:54.439Z,99375.47
2022-09-21T00:26:25.206Z,99373.19
2022-09-21T00:28:59.357Z,99372.56
2022-09-21T00:31:27.866Z,99377.69
2022-09-21T00:33:54.845Z,99381.38
2022-09-21T00:36:24.428Z,99381.78
2022-09-21T00:39:01.505Z,99379.56
2022-09-21T00:41:32.226Z,99384.28
2022-09-21T00:44:29.980Z,99382.44
2022-09-21T00:47:04.669Z,99379.69
2022-09-21T00:49:34.557Z,99383.16
2022-09-21T00:52:05.344Z,99389.47
2022-09-21T00:55:01.443Z,99377.72
2022-09-21T00:57:31.352Z,99386.31
2022-09-21T01:00:02.598Z,99384.53
2022-09-21T01:02:29.300Z,99385.34
2022-09-21T01:04:56.682Z,99385.75
2022-09-21T01:07:29.517Z,99382.97
2022-09-21T01:10:03.303Z,99394.78
2022-09-21T01:13:18.784Z,99385.97
2022-09-21T01:16:12.394Z,99389.88
2022-09-21T01:19:14.228Z,99393.91
2022-09-21T01:21:57.261Z,99392.97
2022-09-21T01:25:11.646Z,99390.84
2022-09-21T01:28:02.790Z,99392.31
2022-09-21T01:30:35.847Z,99390.16
2022-09-21T01:33:14.524Z,99389.78
2022-09-21T01:35:49.202Z,99393.66
2022-09-21T01:38:30.147Z,99397.69
2022-09-21T01:41:04.260Z,99402.06
2022-09-21T01:43:38.615Z,99392.94
2022-09-21T01:46:13.436Z,99396.13
2022-09-21T01:48:47.074Z,99394.09
2022-09-21T01:51:18.801Z,99397.06
2022-09-21T01:54:02.591Z,99394.03
2022-09-21T01:57:02.440Z,99389.91
2022-09-21T01:59:56.946Z,99389.91
2022-09-21T02:02:43.921Z,99393.63
2022-09-21T02:05:12.263Z,99398.91
2022-09-21T02:07:39.530Z,99398.69
2022-09-21T02:10:10.351Z,99397.47
2022-09-21T02:12:38.238Z,99389.06
2022-09-21T02:15:05.275Z,99397.13
2022-09-21T02:17:58.604Z,99390.34
2022-09-21T02:20:52.637Z,99400.47
2022-09-21T02:23:53.610Z,99399.50
2022-09-21T02:26:36.657Z,99392.75
2022-09-21T02:29:19.575Z,99389.56
2022-09-21T02:32:06.243Z,99397.06
2022-09-21T02:34:47.123Z,99393.81
2022-09-21T02:37:32.224Z,99384.97
2022-09-21T02:40:09.621Z,99392.56
2022-09-21T02:42:43.254Z,99382.88
2022-09-21T02:45:22.508Z,99386.50
2022-09-21T02:48:10.464Z,99384.50
2022-09-21T02:50:57.542Z,99390.13
2022-09-21T02:53:31.750Z,99391.66
2022-09-21T02:56:06.999Z,99391.28
2022-09-21T02:58:43.007Z,99392.81
2022-09-21T03:01:14.301Z,99394.47
2022-09-21T03:03:41.693Z,99384.00
2022-09-21T03:06:08.568Z,99390.31
2022-09-21T03:08:35.253Z,99382.75
2022-09-21T03:11:02.753Z,99388.94
2022-09-21T03:13:29.972Z,99391.56
2022-09-21T03:16:07.135Z,99390.97
2022-09-21T03:18:34.958Z,99390.88
2022-09-21T03:21:02.444Z,99393.25
2022-09-21T03:23:29.760Z,99397.06
2022-09-21T03:25:56.192Z,99396.53
2022-09-21T03:28:23.483Z,99400.38
2022-09-21T03:30:52.000Z,99398.28
2022-09-21T03:33:21.345Z,99400.25
2022-09-21T03:35:48.906Z,99401.31
2022-09-21T03:38:16.785Z,99400.38
2022-09-21T03:40:50.718Z,99398.63
2022-09-21T03:43:18.192Z,99399.09
2022-09-21T03:45:45.959Z,99404.16
2022-09-21T03:48:12.839Z,99410.56
2022-09-21T03:50:39.486Z,99402.25
2022-09-21T03:53:06.587Z,99409.34
2022-09-21T03:55:33.748Z,99412.09
2022-09-21T03:58:00.819Z,99408.16
2022-09-21T04:00:28.945Z,99411.06
2022-09-21T04:02:55.865Z,99407.63
2022-09-21T04:05:23.185Z,99399.09
2022-09-21T04:07:50.006Z,99402.97
2022-09-21T04:10:21.839Z,99402.28
2022-09-21T04:12:48.625Z,99399.69
2022-09-21T04:15:21.672Z,99401.59
2022-09-21T04:17:51.974Z,99404.25
2022-09-21T04:20:19.211Z,99402.50
2022-09-21T04:22:46.642Z,99405.19
2022-09-21T04:25:14.909Z,99401.66
2022-09-21T04:27:41.475Z,99394.44
2022-09-21T04:30:10.054Z,99402.13
2022-09-21T04:32:36.940Z,99396.22
2022-09-21T04:35:04.241Z,99407.88
2022-09-21T04:37:30.719Z,99408.03
2022-09-21T04:39:57.217Z,99409.09
2022-09-21T04:42:23.679Z,99409.94
2022-09-21T04:44:50.796Z,99412.41
2022-09-21T04:47:17.332Z,99412.09
2022-09-21T04:49:43.776Z,99416.94
2022-09-21T04:52:10.234Z,99420.38
2022-09-21T04:54:36.706Z,99418.91
2022-09-21T04:57:03.177Z,99420.84
2022-09-21T04:59:29.633Z,99418.31
2022-09-21T05:01:56.058Z,99418.00
2022-09-21T05:04:22.478Z,99421.22
2022-09-21T05:06:48.989Z,99426.50
2022-09-21T05:09:35.380Z,99425.88
2022-09-21T05:12:02.947Z,99428.16
2022-09-21T05:14:29.379Z,99425.13
2022-09-21T05:16:55.788Z,99431.34
2022-09-21T05:19:22.749Z,99435.78
2022-09-21T05:21:49.165Z,99438.56
2022-09-21T05:24:15.699Z,99447.50
2022-09-21T05:26:42.186Z,99443.16
2022-09-21T05:29:09.006Z,99449.28
2022-09-21T05:31:49.037Z,99454.56
2022-09-21T05:34:42.747Z,99459.91
2022-09-21T05:37:35.506Z,99453.56
2022-09-21T05:40:02.721Z,99451.38
2022-09-21T05:42:29.771Z,99462.50
2022-09-21T05:44:56.598Z,99464.22
2022-09-21T05:48:01.093Z,99462.72
2022-09-21T05:50:51.660Z,99470.56
2022-09-21T05:53:36.993Z,99471.53
2022-09-21T05:56:18.629Z,99470.63
2022-09-21T05:59:11.601Z,99467.31
2022-09-21T06:02:08.595Z,99470.84
2022-09-21T06:04:35.537Z,99471.03
2022-09-21T06:07:01.965Z,99470.22
2022-09-21T06:09:29.721Z,99475.63
2022-09-21T06:11:56.184Z,99473.28
2022-09-21T06:14:25.543Z,99474.19
2022-09-21T06:16:52.650Z,99484.56
2022-09-21T06:19:19.364Z,99485.19
2022-09-21T06:21:45.971Z,99479.84
2022-09-21T06:24:12.589Z,99484.00
2022-09-21T06:26:39.039Z,99479.75
2022-09-21T06:29:05.473Z,99484.16
2022-09-21T06:31:32.737Z,99484.78
2022-09-21T06:33:59.849Z,99485.22
2022-09-21T06:36:26.299Z,99477.72
2022-09-21T06:38:52.812Z,99481.66
2022-09-21T06:41:21.402Z,99472.75
2022-09-21T06:43:48.215Z,99481.34
2022-09-21T06:46:14.945Z,99478.66
2022-09-21T06:48:41.427Z,99478.72
2022-09-21T06:51:07.995Z,99475.44
2022-09-21T06:53:35.056Z,99485.56
2022-09-21T06:56:08.222Z,99477.53
2022-09-21T06:58:37.494Z,99477.13
2022-09-21T07:01:15.020Z,99474.34
2022-09-21T07:03:43.090Z,99472.34
2022-09-21T07:06:11.802Z,99478.19
2022-09-21T07:11:27.360Z,99479.63
2022-09-21T07:13:53.904Z,99479.44
2022-09-21T07:16:21.490Z,99476.94
2022-09-21T07:18:48.826Z,99476.41
2022-09-21T07:21:15.884Z,99482.88
2022-09-21T07:23:42.344Z,99481.34
2022-09-21T07:26:14.254Z,99483.88
2022-09-21T07:28:41.471Z,99478.47
2022-09-21T07:31:12.006Z,99481.38
2022-09-21T07:33:38.485Z,99486.88
2022-09-21T07:36:10.160Z,99489.84
2022-09-21T07:38:39.703Z,99487.63
2022-09-21T07:41:08.548Z,99484.66
2022-09-21T07:43:35.046Z,99481.97
2022-09-21T07:46:02.110Z,99486.91
2022-09-21T07:48:28.997Z,99487.69
2022-09-21T07:51:00.068Z,99479.09
2022-09-21T07:53:26.511Z,99483.56
2022-09-21T07:55:52.949Z,99480.00
2022-09-21T07:58:38.005Z,99482.13
2022-09-21T08:01:06.608Z,99473.91
2022-09-21T08:03:33.573Z,99472.59
2022-09-21T08:06:00.323Z,99471.22
2022-09-21T08:08:26.763Z,99470.72
2022-09-21T08:10:54.438Z,99469.31
2022-09-21T08:13:20.992Z,99474.06
2022-09-21T08:15:50.205Z,99471.81
2022-09-21T08:18:16.972Z,99471.50
2022-09-21T08:20:43.864Z,99472.03
2022-09-21T08:23:10.716Z,99474.16
2022-09-21T08:25:37.407Z,99476.38
2022-09-21T08:28:08.799Z,99470.69
2022-09-21T08:30:36.228Z,99471.22
2022-09-21T08:33:03.426Z,99472.59
2022-09-21T08:35:29.885Z,99473.84
2022-09-21T08:37:56.384Z,99471.75
2022-09-21T08:40:23.993Z,99471.44
2022-09-21T08:43:03.934Z,99476.38
2022-09-21T08:45:39.201Z,99481.34
2022-09-21T08:48:36.700Z,99480.88
2022-09-21T08:51:10.070Z,99476.28
2022-09-21T08:53:43.827Z,99472.38
2022-09-21T08:56:15.608Z,99472.75
2022-09-21T08:58:43.817Z,99471.22
2022-09-21T09:01:40.351Z,99478.03
2022-09-21T09:04:31.432Z,99469.94
2022-09-21T09:07:26.060Z,99470.69
2022-09-21T09:10:06.623Z,99476.63
2022-09-21T09:13:33.672Z,99476.44
2022-09-21T09:16:10.465Z,99474.97
2022-09-21T09:19:11.865Z,99469.88
2022-09-21T09:21:43.028Z,99473.56
2022-09-21T09:24:43.581Z,99464.94
2022-09-21T09:27:21.900Z,99465.19
2022-09-21T09:30:03.547Z,99462.13
2022-09-21T09:32:51.131Z,99466.88
2022-09-21T09:35:39.272Z,99470.00
2022-09-21T09:38:14.038Z,99457.16
2022-09-21T09:41:07.107Z,99457.56
2022-09-21T09:43:57.797Z,99459.31
2022-09-21T09:47:20.063Z,99453.91
2022-09-21T09:50:11.770Z,99449.84
2022-09-21T09:52:39.096Z,99452.44
2022-09-21T09:55:24.335Z,99445.81
2022-09-21T09:57:52.394Z,99448.69
2022-09-21T10:00:21.844Z,99451.78
2022-09-21T10:03:01.368Z,99447.88
2022-09-21T10:05:32.900Z,99449.09
2022-09-21T10:08:00.064Z,99447.59
2022-09-21T10:10:29.269Z,99449.75
2022-09-21T10:13:06.341Z,99444.59
2022-09-21T10:15:33.367Z,99454.72
2022-09-21T10:18:18.804Z,99446.97
2022-09-21T10:21:03.109Z,99445.28
2022-09-21T10:23:32.417Z,99442.59
2022-09-21T10:26:09.494Z,99436.47
2022-09-21T10:28:38.066Z,99438.13
2022-09-21T10:31:23.710Z,99430.13
2022-09-21T10:34:07.040Z,99429.94
2022-09-21T10:36:37.485Z,99424.47
2022-09-21T10:39:18.524Z,99429.03
2022-09-21T10:42:18.009Z,99425.19
2022-09-21T10:45:12.843Z,99430.84
2022-09-21T10:47:44.231Z,99429.97
2022-09-21T10:50:36.310Z,99425.63
2022-09-21T10:53:30.926Z,99425.78
2022-09-21T10:56:20.566Z,99418.56
2022-09-21T10:59:21.852Z,99422.03
2022-09-21T11:01:55.450Z,99420.25
2022-09-21T11:04:32.132Z,99426.38
2022-09-21T11:07:09.107Z,99413.16
2022-09-21T11:09:54.349Z,99424.47
2022-09-21T11:12:45.762Z,99413.47
2022-09-21T11:15:25.408Z,99424.72
2022-09-21T11:18:04.716Z,99418.47
2022-09-21T11:20:46.199Z,99417.31
2022-09-21T11:23:43.991Z,99412.38
2022-09-21T11:26:13.074Z,99421.50
2022-09-21T11:28:49.632Z,99407.81
2022-09-21T11:31:26.079Z,99412.72
2022-09-21T11:34:14.963Z,99412.47
2022-09-21T11:37:15.010Z,99401.66
2022-09-21T11:40:04.739Z,99395.75
2022-09-21T11:43:29.509Z,99390.13
2022-09-21T11:46:34.762Z,99393.63
2022-09-21T11:49:19.566Z,99386.44
2022-09-21T11:51:57.380Z,99386.22
2022-09-21T11:54:40.768Z,99381.97
2022-09-21T11:57:28.679Z,99380.50
2022-09-21T12:00:18.702Z,99378.06
2022-09-21T12:03:33.147Z,99368.81
2022-09-21T12:06:42.939Z,99374.31
2022-09-21T12:10:01.472Z,99372.63
2022-09-21T12:12:39.916Z,99365.25
2022-09-21T12:15:34.511Z,99367.34
2022-09-21T12:18:28.507Z,99368.28
2022-09-21T12:21:16.490Z,99364.53
2022-09-21T12:23:49.708Z,99364.38
2022-09-21T12:26:37.008Z,99363.56
2022-09-21T12:29:14.856Z,99355.59
2022-09-21T12:32:03.618Z,99354.69
2022-09-21T12:35:00.695Z,99350.38
2022-09-21T12:37:39.267Z,99351.53
2022-09-21T12:40:27.701Z,99348.81
2022-09-21T12:43:13.965Z,99347.59
2022-09-21T12:45:51.463Z,99346.13
2022-09-21T12:48:32.098Z,99332.88
2022-09-21T12:51:35.409Z,99332.88
2022-09-21T12:54:24.140Z,99338.81
2022-09-21T12:57:36.936Z,99342.06
2022-09-21T13:00:17.742Z,99334.56
2022-09-21T13:03:10.908Z,99338.06
2022-09-21T13:06:07.652Z,99338.19
2022-09-21T13:08:43.251Z,99329.25
2022-09-21T13:11:10.773Z,99329.97
2022-09-21T13:13:45.302Z,99331.06
2022-09-21T13:16:32.250Z,99330.59
2022-09-21T13:19:24.020Z,99331.66
2022-09-21T13:22:34.299Z,99329.88
2022-09-21T13:25:09.217Z,99331.06
2022-09-21T13:28:04.167Z,99325.50
2022-09-21T13:30:35.103Z,99326.34
2022-09-21T13:33:05.122Z,99329.50
2022-09-21T13:36:02.767Z,99325.41
2022-09-21T13:38:41.390Z,99322.75
2022-09-21T13:41:19.724Z,99326.13
2022-09-21T13:43:50.418Z,99316.69
2022-09-21T13:46:43.692Z,99317.66
2022-09-21T13:49:13.837Z,99317.91
2022-09-21T13:52:04.043Z,99319.34
2022-09-21T13:54:52.164Z,99313.81
2022-09-21T13:57:27.014Z,99316.09
2022-09-21T14:00:07.490Z,99318.75
2022-09-21T14:02:39.245Z,99310.19
2022-09-21T14:05:42.478Z,99309.81
2022-09-21T14:08:14.665Z,99307.41
2022-09-21T14:10:51.827Z,99306.31
2022-09-21T14:13:47.842Z,99310.31
2022-09-21T14:16:37.203Z,99301.00
2022-09-21T14:19:26.655Z,99300.84
2022-09-21T14:22:06.075Z,99298.09
2022-09-21T14:24:47.158Z,99299.16
2022-09-21T14:27:36.329Z,99291.19
2022-09-21T14:30:19.911Z,99293.22
2022-09-21T14:33:49.003Z,99289.94
2022-09-21T14:36:22.131Z,99283.22
2022-09-21T14:39:00.579Z,99289.69
2022-09-21T14:41:40.882Z,99286.47
2022-09-21T14:44:19.858Z,99280.75
2022-09-21T14:47:39.289Z,99280.25
2022-09-21T14:50:43.399Z,99274.94
2022-09-21T14:53:39.224Z,99271.00
2022-09-21T14:56:58.698Z,99270.84
2022-09-21T14:59:55.271Z,99254.09
2022-09-21T15:02:32.359Z,99267.34
2022-09-21T15:05:27.611Z,99258.78
2022-09-21T15:08:40.703Z,99264.22
2022-09-21T15:11:23.422Z,99260.94
2022-09-21T15:14:00.075Z,99259.88
2022-09-21T15:16:35.169Z,99263.31
2022-09-21T15:19:23.565Z,99262.50
2022-09-21T15:22:17.677Z,99261.13
2022-09-21T15:25:02.721Z,99258.31
2022-09-21T15:27:32.996Z,99266.81
2022-09-21T15:30:04.083Z,99264.00
2022-09-21T15:32:40.011Z,99261.34
2022-09-21T15:35:18.069Z,99258.31
2022-09-21T15:37:45.706Z,99255.31
2022-09-21T15:40:23.237Z,99257.75
2022-09-21T15:43:16.751Z,99260.44
2022-09-21T15:46:00.761Z,99254.28
2022-09-21T15:48:32.970Z,99254.41
2022-09-21T15:51:23.320Z,99256.31
2022-09-21T15:53:58.991Z,99257.47
2022-09-21T15:56:28.643Z,99262.38
2022-09-21T15:59:08.962Z,99247.00
2022-09-21T16:01:47.453Z,99263.59
2022-09-21T16:04:23.712Z,99243.13
2022-09-21T16:07:04.079Z,99254.19
2022-09-21T16:09:46.169Z,99255.44
2022-09-21T16:12:39.597Z,99255.44
2022-09-21T16:15:18.513Z,99259.38
2022-09-21T16:18:05.054Z,99251.34
2022-09-21T16:21:08.279Z,99256.25
2022-09-21T16:23:35.819Z,99254.28
2022-09-21T16:26:02.391Z,99261.88
2022-09-21T16:28:38.389Z,99263.78
2022-09-21T16:31:30.971Z,99256.88
2022-09-21T16:34:06.283Z,99263.97
2022-09-21T16:36:40.571Z,99269.78
2022-09-21T16:39:15.010Z,99256.88
2022-09-21T16:41:56.958Z,99267.78
2022-09-21T16:44:27.937Z,99270.81
2022-09-21T16:47:01.720Z,99267.84
2022-09-21T16:49:33.545Z,99268.69
2022-09-21T16:52:00.350Z,99273.34
2022-09-21T16:54:28.208Z,99275.97
2022-09-21T16:56:58.263Z,99270.47
2022-09-21T16:59:25.804Z,99278.91
2022-09-21T17:01:56.610Z,99269.25
2022-09-21T17:04:29.070Z,99277.78
2022-09-21T17:06:56.760Z,99273.00
2022-09-21T17:09:33.195Z,99277.09
2022-09-21T17:12:01.986Z,99270.50
2022-09-21T17:14:40.788Z,99276.84
2022-09-21T17:17:17.462Z,99275.59
2022-09-21T17:19:46.424Z,99284.56
2022-09-21T17:22:17.133Z,99278.81
2022-09-21T17:24:51.671Z,99280.91
2022-09-21T17:27:22.909Z,99283.22
2022-09-21T17:29:50.442Z,99283.31
2022-09-21T17:32:20.984Z,99280.91
2022-09-21T17:35:15.749Z,99288.47
2022-09-21T17:37:42.376Z,99280.41
2022-09-21T17:40:11.090Z,99279.94
2022-09-21T17:42:41.515Z,99288.50
2022-09-21T17:45:37.527Z,99285.19
2022-09-21T17:48:05.646Z,99288.94
2022-09-21T17:50:32.318Z,99291.97
2022-09-21T17:53:17.723Z,99289.84
2022-09-21T17:55:56.758Z,99299.41
2022-09-21T17:59:02.005Z,99298.81
2022-09-21T18:01:37.676Z,99288.25
2022-09-21T18:04:05.822Z,99291.41
2022-09-21T18:06:34.101Z,99279.81
2022-09-21T18:09:01.619Z,99296.03
2022-09-21T18:12:13.731Z,99293.72
2022-09-21T18:15:03.260Z,99293.75
2022-09-21T18:18:13.011Z,99297.34
2022-09-21T18:21:02.060Z,99299.69
2022-09-21T18:23:56.476Z,99298.38
2022-09-21T18:26:23.955Z,99303.28
2022-09-21T18:28:56.899Z,99298.16
2022-09-21T18:32:01.349Z,99303.28
2022-09-21T18:34:36.680Z,99313.41
2022-09-21T18:37:48.521Z,99315.16
2022-09-21T18:40:53.056Z,99308.53
2022-09-21T18:43:32.928Z,99315.84
2022-09-21T18:46:14.786Z,99313.47
2022-09-21T18:49:12.847Z,99328.50
2022-09-21T18:52:24.596Z,99319.63
2022-09-21T18:54:51.479Z,99317.25
2022-09-21T18:57:18.353Z,99319.78
2022-09-21T18:59:45.260Z,99320.97
2022-09-21T19:02:20.286Z,99330.38
2022-09-21T19:04:48.496Z,99323.66
2022-09-21T19:07:40.174Z,99331.53
2022-09-21T19:10:25.250Z,99330.44
2022-09-21T19:13:19.434Z,99330.69
2022-09-21T19:16:07.173Z,99331.91
2022-09-21T19:19:01.038Z,99332.31
2022-09-21T19:21:51.654Z,99335.78
2022-09-21T19:24:42.465Z,99345.50
2022-09-21T19:27:52.582Z,99333.91
2022-09-21T19:30:19.279Z,99332.16
2022-09-21T19:33:01.122Z,99335.78
2022-09-21T19:35:30.912Z,99339.03
2022-09-21T19:38:01.340Z,99333.72
2022-09-21T19:40:34.565Z,99330.59
2022-09-21T19:43:10.645Z,99329.38
2022-09-21T19:46:05.186Z,99334.19
2022-09-21T19:48:58.971Z,99342.19
2022-09-21T19:51:51.473Z,99339.56
2022-09-21T19:54:43.286Z,99340.41
2022-09-21T19:57:35.045Z,99337.94
2022-09-21T20:00:05.295Z,99342.78
2022-09-21T20:02:59.806Z,99339.56
2022-09-21T20:06:06.577Z,99338.84
2022-09-21T20:09:08.354Z,99339.06
2022-09-21T20:12:03.726Z,99336.34
2022-09-21T20:14:49.831Z,99338.28
2022-09-21T20:17:24.829Z,99336.94
2022-09-21T20:20:09.053Z,99337.88
2022-09-21T20:22:38.806Z,99335.75
2022-09-21T20:25:30.388Z,99342.09
2022-09-21T20:27:58.128Z,99334.66
2022-09-21T20:30:31.365Z,99343.84
2022-09-21T20:33:14.076Z,99340.03
2022-09-21T20:35:45.242Z,99345.94
2022-09-21T20:38:11.784Z,99341.97
2022-09-21T20:40:40.323Z,99340.06
2022-09-21T20:43:09.043Z,99339.47
2022-09-21T20:45:35.616Z,99345.75
2022-09-21T20:48:13.172Z,99339.22
2022-09-21T20:50:46.441Z,99332.91
2022-09-21T20:53:13.790Z,99338.63
2022-09-21T20:55:41.667Z,99340.56
2022-09-21T20:58:12.629Z,99340.28
2022-09-21T21:00:39.357Z,99333.63
2022-09-21T21:03:05.862Z,99344.53
2022-09-21T21:05:32.752Z,99341.25
2022-09-21T21:07:59.172Z,99340.28
2022-09-21T21:10:25.762Z,99342.31
2022-09-21T21:12:54.969Z,99342.94
2022-09-21T21:15:21.451Z,99340.41
2022-09-21T21:17:48.879Z,99343.75
2022-09-21T21:20:19.031Z,99343.63
2022-09-21T21:22:50.193Z,99340.97
2022-09-21T21:25:17.294Z,99338.13
2022-09-21T21:27:44.209Z,99342.69
2022-09-21T21:30:11.764Z,99340.34
2022-09-21T21:32:38.236Z,99343.59
2022-09-21T21:35:05.671Z,99342.66
2022-09-21T21:37:32.144Z,99342.34
2022-09-21T21:39:58.611Z,99344.56
2022-09-21T21:42:25.731Z,99354.44
2022-09-21T21:44:52.303Z,99352.16
2022-09-21T21:50:06.261Z,99350.38
2022-09-21T21:52:32.792Z,99348.28
2022-09-21T21:54:59.230Z,99350.25
2022-09-21T21:57:25.678Z,99342.31
2022-09-21T21:59:52.117Z,99352.09
2022-09-21T22:02:18.780Z,99354.53
2022-09-21T22:04:45.228Z,99343.50
2022-09-21T22:07:11.687Z,99347.09
2022-09-21T22:09:38.534Z,99351.72
2022-09-21T22:12:05.086Z,99347.50
2022-09-21T22:14:31.788Z,99350.97
2022-09-21T22:16:59.053Z,99350.84
2022-09-21T22:19:25.608Z,99348.69
2022-09-21T22:21:54.452Z,99349.53
2022-09-21T22:24:24.879Z,99352.22
2022-09-21T22:26:51.405Z,99348.22
2022-09-21T22:29:17.872Z,99350.03
2022-09-21T22:31:48.100Z,99352.03
2022-09-21T22:34:16.198Z,99334.56
2022-09-21T22:36:43.758Z,99346.88
2022-09-21T22:39:12.012Z,99339.34
2022-09-21T22:41:41.985Z,99331.34
2022-09-21T22:44:10.366Z,99335.59
2022-09-21T22:46:37.548Z,99331.28
2022-09-21T22:49:04.081Z,99329.47
2022-09-21T22:51:31.172Z,99329.09
2022-09-21T22:53:58.307Z,99321.31
2022-09-21T22:56:31.525Z,99334.03
2022-09-21T22:59:01.422Z,99331.19
2022-09-21T23:01:33.454Z,99324.38
2022-09-21T23:04:05.532Z,99325.38
2022-09-21T23:06:35.494Z,99324.00
2022-09-21T23:09:07.669Z,99321.53
2022-09-21T23:11:38.498Z,99328.75
2022-09-21T23:14:05.763Z,99331.25
2022-09-21T23:16:32.505Z,99325.69
2022-09-21T23:18:59.577Z,99328.84
2022-09-21T23:21:29.344Z,99325.81
2022-09-21T23:24:02.963Z,99323.63
2022-09-21T23:26:32.163Z,99321.06
2022-09-21T23:29:02.289Z,99322.41
2022-09-21T23:31:31.408Z,99318.13
2022-09-21T23:34:05.242Z,99323.81
2022-09-21T23:36:32.410Z,99318.59
2022-09-21T23:38:59.753Z,99321.59
2022-09-21T23:41:34.055Z,99319.72
2022-09-21T23:44:01.480Z,99316.91
2022-09-21T23:46:33.236Z,99316.75
2022-09-21T23:49:01.071Z,99322.09
2022-09-21T23:51:29.886Z,99322.28
2022-09-21T23:53:57.398Z,99324.66
2022-09-21T23:56:25.046Z,99325.81
2022-09-21T23:58:52.341Z,99319.69
